createdAt,value
2022-08-05T00:00:51.995Z,2.58
2022-08-05T00:03:19.261Z,1.83
2022-08-05T00:06:04.755Z,2.33
2022-08-05T00:08:35.488Z,2.13
2022-08-05T00:11:11.872Z,1.90
2022-08-05T00:13:53.012Z,1.25
2022-08-05T00:16:36.264Z,2.33
2022-08-05T00:19:08.005Z,2.47
2022-08-05T00:21:36.028Z,2.15
2022-08-05T00:24:10.949Z,2.30
2022-08-05T00:26:38.950Z,1.65
2022-08-05T00:29:17.835Z,2.35
2022-08-05T00:32:10.092Z,1.13
2022-08-05T00:34:53.412Z,1.73
2022-08-05T00:37:20.204Z,1.90
2022-08-05T00:39:57.239Z,2.30
2022-08-05T00:42:33.162Z,1.90
2022-08-05T00:45:01.115Z,2.08
2022-08-05T00:47:53.260Z,2.25
2022-08-05T00:50:15.716Z,2.28
2022-08-05T00:52:45.436Z,2.60
2022-08-05T00:55:14.142Z,2.22
2022-08-05T00:57:58.282Z,2.42
2022-08-05T01:00:28.174Z,2.35
2022-08-05T01:02:57.529Z,1.65
2022-08-05T01:05:27.869Z,1.70
2022-08-05T01:08:39.225Z,2.30
2022-08-05T01:10:52.137Z,2.00
2022-08-05T01:13:58.919Z,1.73
2022-08-05T01:16:54.733Z,1.88
2022-08-05T01:20:00.740Z,1.98
2022-08-05T01:23:15.039Z,1.67
2022-08-05T01:26:01.093Z,2.38
2022-08-05T01:28:33.346Z,1.17
2022-08-05T01:31:44.564Z,1.25
2022-08-05T01:34:30.960Z,2.05
2022-08-05T01:37:24.581Z,1.20
2022-08-05T01:39:58.712Z,2.40
2022-08-05T01:42:28.081Z,2.20
2022-08-05T01:45:02.285Z,2.65
2022-08-05T01:47:39.692Z,2.20
2022-08-05T01:50:19.072Z,2.38
2022-08-05T01:53:02.719Z,2.17
2022-08-05T01:55:36.022Z,1.60
2022-08-05T01:58:10.036Z,2.60
2022-08-05T02:00:50.984Z,1.83
2022-08-05T02:03:32.027Z,2.58
2022-08-05T02:06:03.773Z,2.22
2022-08-05T02:08:58.549Z,2.17
2022-08-05T02:11:32.724Z,2.63
2022-08-05T02:14:17.044Z,2.03
2022-08-05T02:16:52.960Z,1.58
2022-08-05T02:19:47.186Z,1.65
2022-08-05T02:22:27.361Z,2.10
2022-08-05T02:25:22.188Z,1.67
2022-08-05T02:27:59.778Z,2.15
2022-08-05T02:30:34.509Z,2.53
2022-08-05T02:33:03.071Z,1.88
2022-08-05T02:35:37.399Z,2.72
2022-08-05T02:38:09.424Z,2.38
2022-08-05T02:40:38.839Z,2.08
2022-08-05T02:43:07.287Z,1.57
2022-08-05T02:45:52.411Z,2.30
2022-08-05T02:48:29.337Z,1.73
2022-08-05T02:51:00.189Z,1.48
2022-08-05T02:53:29.283Z,2.40
2022-08-05T02:56:16.092Z,1.95
2022-08-05T02:58:51.603Z,2.88
2022-08-05T03:01:24.118Z,2.53
2022-08-05T03:04:03.181Z,2.28
2022-08-05T03:06:56.735Z,2.30
2022-08-05T03:09:36.469Z,1.90
2022-08-05T03:12:06.570Z,3.10
2022-08-05T03:14:35.258Z,3.10
2022-08-05T03:17:13.205Z,2.55
2022-08-05T03:19:41.909Z,2.30
2022-08-05T03:22:16.423Z,2.00
2022-08-05T03:24:50.997Z,1.98
2022-08-05T03:27:22.433Z,2.80
2022-08-05T03:30:07.529Z,1.70
2022-08-05T03:32:36.584Z,1.70
2022-08-05T03:35:04.473Z,1.70
2022-08-05T03:37:41.004Z,1.90
2022-08-05T03:40:14.099Z,1.20
2022-08-05T03:42:51.680Z,2.42
2022-08-05T03:45:21.706Z,2.88
2022-08-05T03:47:50.413Z,2.55
2022-08-05T03:50:17.736Z,2.45
2022-08-05T03:56:06.286Z,1.83
2022-08-05T03:56:35.069Z,2.50
2022-08-05T03:59:07.672Z,1.90
2022-08-05T04:01:40.071Z,1.58
2022-08-05T04:04:10.644Z,2.72
2022-08-05T04:06:38.536Z,2.38
2022-08-05T04:09:20.454Z,2.40
2022-08-05T04:11:54.347Z,1.90
2022-08-05T04:14:30.280Z,2.60
2022-08-05T04:16:59.726Z,2.88
2022-08-05T04:19:28.469Z,2.70
2022-08-05T04:22:08.601Z,1.92
2022-08-05T04:24:44.119Z,2.45
2022-08-05T04:27:15.407Z,2.72
2022-08-05T04:32:10.035Z,2.30
2022-08-05T04:34:43.075Z,2.40
2022-08-05T04:37:11.089Z,2.53
2022-08-05T04:39:38.130Z,3.08
2022-08-05T04:42:06.569Z,1.75
2022-08-05T04:44:33.841Z,3.00
2022-08-05T04:47:09.421Z,3.40
2022-08-05T04:50:01.712Z,2.13
2022-08-05T04:52:27.366Z,3.25
2022-08-05T04:54:57.466Z,2.80
2022-08-05T04:57:29.150Z,2.45
2022-08-05T04:59:58.608Z,1.85
2022-08-05T05:02:36.914Z,2.88
2022-08-05T05:05:16.482Z,2.05
2022-08-05T05:07:45.835Z,2.47
2022-08-05T05:10:22.336Z,1.63
2022-08-05T05:12:50.945Z,1.75
2022-08-05T05:15:54.388Z,3.53
2022-08-05T05:18:05.725Z,1.67
2022-08-05T05:20:33.798Z,2.42
2022-08-05T05:23:08.450Z,2.15
2022-08-05T05:25:47.870Z,2.13
2022-08-05T05:28:14.912Z,2.58
2022-08-05T05:30:43.128Z,2.05
2022-08-05T05:33:17.653Z,2.25
2022-08-05T05:35:50.538Z,2.45
2022-08-05T05:38:27.221Z,2.42
2022-08-05T05:40:56.060Z,2.50
2022-08-05T05:43:54.370Z,2.33
2022-08-05T05:46:15.892Z,2.47
2022-08-05T05:48:44.387Z,2.05
2022-08-05T05:51:14.918Z,1.92
2022-08-05T05:53:45.958Z,2.78
2022-08-05T05:56:31.827Z,2.97
2022-08-05T05:59:05.226Z,2.15
2022-08-05T06:01:37.865Z,2.08
2022-08-05T06:04:07.656Z,2.60
2022-08-05T06:06:35.962Z,2.58
2022-08-05T06:09:04.942Z,3.60
2022-08-05T06:11:33.116Z,2.35
2022-08-05T06:14:00.788Z,2.30
2022-08-05T06:16:33.061Z,1.92
2022-08-05T06:19:07.337Z,2.28
2022-08-05T06:24:12.475Z,2.78
2022-08-05T06:26:51.309Z,2.67
2022-08-05T06:29:25.266Z,2.40
2022-08-05T06:32:21.130Z,2.65
2022-08-05T06:34:56.900Z,2.90
2022-08-05T06:37:56.656Z,2.53
2022-08-05T06:40:20.657Z,2.15
2022-08-05T06:42:52.773Z,2.53
2022-08-05T06:45:44.718Z,3.13
2022-08-05T06:48:37.316Z,2.17
2022-08-05T06:50:56.914Z,2.83
2022-08-05T06:53:28.063Z,2.10
2022-08-05T06:56:00.147Z,2.25
2022-08-05T06:58:35.226Z,2.42
2022-08-05T07:01:05.826Z,2.58
2022-08-05T07:03:33.828Z,2.53
2022-08-05T07:06:05.972Z,2.10
2022-08-05T07:08:48.050Z,2.13
2022-08-05T07:11:22.476Z,2.70
2022-08-05T07:14:15.400Z,2.78
2022-08-05T07:18:01.083Z,2.75
2022-08-05T07:22:28.682Z,2.38
2022-08-05T07:25:23.803Z,2.40
2022-08-05T07:27:57.542Z,2.45
2022-08-05T07:30:31.819Z,2.45
2022-08-05T07:33:01.055Z,2.67
2022-08-05T07:36:04.335Z,3.17
2022-08-05T07:38:32.091Z,2.25
2022-08-05T07:41:35.183Z,2.85
2022-08-05T07:43:57.456Z,2.72
2022-08-05T07:46:29.714Z,3.17
2022-08-05T07:49:02.591Z,2.42
2022-08-05T07:51:48.672Z,2.53
2022-08-05T07:54:23.339Z,3.05
2022-08-05T07:57:02.367Z,2.83
2022-08-05T07:59:42.883Z,3.25
2022-08-05T08:02:16.794Z,2.78
2022-08-05T08:04:46.894Z,2.47
2022-08-05T08:07:14.995Z,3.30
2022-08-05T08:09:42.571Z,2.47
2022-08-05T08:12:27.225Z,2.78
2022-08-05T08:14:56.888Z,3.45
2022-08-05T08:17:29.301Z,2.38
2022-08-05T08:20:20.996Z,2.85
2022-08-05T08:22:55.867Z,2.20
2022-08-05T08:25:27.205Z,2.33
2022-08-05T08:28:18.057Z,2.53
2022-08-05T08:30:47.843Z,2.85
2022-08-05T08:33:19.112Z,2.53
2022-08-05T08:35:53.126Z,2.28
2022-08-05T08:38:35.154Z,2.50
2022-08-05T08:41:08.579Z,2.30
2022-08-05T08:45:25.209Z,2.03
2022-08-05T08:46:26.566Z,2.03
2022-08-05T08:49:08.084Z,1.63
2022-08-05T08:52:03.337Z,0.70
2022-08-05T08:54:36.286Z,0.85
2022-08-05T08:57:11.277Z,0.57
2022-08-05T08:59:41.677Z,0.65
2022-08-05T09:02:14.755Z,0.70
2022-08-05T09:07:40.055Z,0.82
2022-08-05T09:10:22.119Z,0.80
2022-08-05T09:12:56.027Z,0.85
2022-08-05T09:15:23.505Z,0.80
2022-08-05T09:17:52.893Z,0.95
2022-08-05T09:20:36.187Z,0.90
2022-08-05T09:23:21.660Z,1.05
2022-08-05T09:26:00.240Z,1.00
2022-08-05T09:28:32.537Z,0.70
2022-08-05T09:31:22.481Z,0.93
2022-08-05T09:34:05.171Z,1.40
2022-08-05T09:37:01.715Z,0.98
2022-08-05T09:39:45.702Z,1.42
2022-08-05T09:42:23.885Z,0.70
2022-08-05T09:44:56.828Z,0.60
2022-08-05T09:47:36.465Z,0.65
2022-08-05T09:50:18.210Z,1.75
2022-08-05T09:53:01.611Z,0.75
2022-08-05T09:55:56.586Z,1.63
2022-08-05T09:58:23.764Z,0.50
2022-08-05T10:00:59.752Z,0.57
2022-08-05T10:03:56.669Z,0.60
2022-08-05T10:06:20.631Z,0.65
2022-08-05T10:08:50.436Z,0.90
2022-08-05T10:11:21.729Z,0.60
2022-08-05T10:13:54.676Z,0.70
2022-08-05T10:16:41.998Z,0.60
2022-08-05T10:19:23.571Z,0.65
2022-08-05T10:21:59.491Z,1.08
2022-08-05T10:24:27.378Z,0.82
2022-08-05T10:27:00.572Z,0.65
2022-08-05T10:30:06.676Z,0.57
2022-08-05T10:32:53.222Z,0.70
2022-08-05T10:35:07.352Z,0.70
2022-08-05T10:37:40.322Z,0.40
2022-08-05T10:40:32.859Z,0.28
2022-08-05T10:43:35.781Z,1.10
2022-08-05T10:46:10.526Z,0.60
2022-08-05T10:48:53.011Z,0.47
2022-08-05T10:51:28.835Z,1.35
2022-08-05T10:56:44.373Z,0.98
2022-08-05T11:00:03.644Z,0.80
2022-08-05T11:02:34.410Z,1.35
2022-08-05T11:04:59.511Z,2.03
2022-08-05T11:07:32.880Z,1.50
2022-08-05T11:10:27.718Z,0.90
2022-08-05T11:13:04.064Z,1.15
2022-08-05T11:16:00.303Z,2.20
2022-08-05T11:18:32.520Z,0.70
2022-08-05T11:21:00.228Z,1.25
2022-08-05T11:24:02.622Z,1.20
2022-08-05T11:26:29.248Z,0.38
2022-08-05T11:29:11.472Z,0.77
2022-08-05T11:31:57.201Z,1.33
2022-08-05T11:34:38.051Z,1.20
2022-08-05T11:37:06.166Z,1.08
2022-08-05T11:40:00.549Z,1.23
2022-08-05T11:42:37.963Z,0.82
2022-08-05T11:45:14.420Z,0.85
2022-08-05T11:47:54.831Z,0.57
2022-08-05T11:50:22.848Z,1.80
2022-08-05T11:52:53.097Z,2.38
2022-08-05T11:55:21.549Z,1.95
2022-08-05T11:58:09.265Z,1.13
2022-08-05T12:00:41.660Z,1.27
2022-08-05T12:03:29.630Z,0.68
2022-08-05T12:06:10.128Z,0.50
2022-08-05T12:08:51.208Z,0.52
2022-08-05T12:18:20.732Z,1.20
2022-08-05T12:20:51.524Z,1.30
2022-08-05T12:23:18.708Z,1.23
2022-08-05T12:25:56.827Z,1.08
2022-08-05T12:28:37.977Z,1.25
2022-08-05T12:31:05.900Z,1.48
2022-08-05T12:33:37.179Z,1.40
2022-08-05T12:36:09.597Z,1.40
2022-08-05T12:41:16.377Z,0.98
2022-08-05T12:43:55.751Z,1.20
2022-08-05T12:46:29.307Z,0.75
2022-08-05T12:49:13.116Z,1.55
2022-08-05T12:52:13.977Z,1.20
2022-08-05T12:54:49.755Z,0.77
2022-08-05T12:57:18.204Z,0.50
2022-08-05T13:01:58.060Z,0.82
2022-08-05T13:02:37.307Z,1.77
2022-08-05T13:10:22.211Z,1.02
2022-08-05T13:12:50.971Z,0.80
2022-08-05T13:15:41.872Z,1.83
2022-08-05T13:18:21.362Z,1.02
2022-08-05T13:20:51.095Z,1.35
2022-08-05T13:23:22.410Z,0.63
2022-08-05T13:25:59.218Z,1.02
2022-08-05T13:28:27.666Z,0.80
2022-08-05T13:30:54.780Z,1.40
2022-08-05T13:34:21.749Z,0.52
2022-08-05T13:36:09.642Z,0.90
2022-08-05T13:38:38.556Z,0.93
2022-08-05T13:41:09.304Z,0.80
2022-08-05T13:43:44.272Z,0.77
2022-08-05T13:49:12.961Z,1.02
2022-08-05T13:51:46.077Z,0.95
2022-08-05T13:54:16.075Z,0.90
2022-08-05T13:56:51.418Z,0.60
2022-08-05T13:59:24.085Z,0.75
2022-08-05T14:01:57.360Z,0.98
2022-08-05T14:04:50.436Z,0.70
2022-08-05T14:08:02.652Z,0.47
2022-08-05T14:10:28.853Z,0.80
2022-08-05T14:12:58.462Z,1.10
2022-08-05T14:16:06.890Z,0.40
2022-08-05T14:18:17.330Z,0.38
2022-08-05T14:20:54.964Z,0.50
2022-08-05T14:23:25.177Z,1.15
2022-08-05T14:25:59.101Z,1.05
2022-08-05T14:28:32.470Z,0.70
2022-08-05T14:31:01.495Z,0.98
2022-08-05T14:33:56.599Z,1.00
2022-08-05T14:36:16.271Z,0.75
2022-08-05T14:38:49.348Z,0.60
2022-08-05T14:41:17.801Z,0.57
2022-08-05T14:44:02.486Z,0.60
2022-08-05T14:46:35.176Z,1.13
2022-08-05T14:49:07.427Z,0.87
2022-08-05T14:51:42.781Z,0.55
2022-08-05T14:54:28.559Z,0.75
2022-08-05T14:56:56.970Z,0.52
2022-08-05T14:59:24.017Z,0.80
2022-08-05T15:01:51.115Z,0.38
2022-08-05T15:04:22.301Z,0.40
2022-08-05T15:06:52.689Z,0.77
2022-08-05T15:09:51.999Z,0.70
2022-08-05T15:12:09.163Z,0.52
2022-08-05T15:14:42.204Z,0.82
2022-08-05T15:17:46.869Z,0.93
2022-08-05T15:20:04.855Z,0.60
2022-08-05T15:22:31.978Z,0.70
2022-08-05T15:24:59.499Z,0.45
2022-08-05T15:27:32.018Z,0.77
2022-08-05T15:29:59.557Z,0.90
2022-08-05T15:32:29.129Z,0.60
2022-08-05T15:34:57.110Z,0.75
2022-08-05T15:38:33.160Z,1.27
2022-08-05T15:40:59.063Z,0.98
2022-08-05T15:43:12.554Z,0.80
2022-08-05T15:45:46.117Z,1.08
2022-08-05T15:48:15.497Z,1.55
2022-08-05T15:50:43.856Z,0.85
2022-08-05T15:53:14.437Z,1.65
2022-08-05T15:56:01.223Z,0.47
2022-08-05T15:58:30.150Z,1.20
2022-08-05T16:01:16.892Z,0.80
2022-08-05T16:03:50.470Z,0.85
2022-08-05T16:06:19.718Z,1.60
2022-08-05T16:08:50.250Z,1.13
2022-08-05T16:11:18.111Z,1.50
2022-08-05T16:13:48.560Z,0.80
2022-08-05T16:16:25.104Z,0.98
2022-08-05T16:18:53.072Z,1.27
2022-08-05T16:21:20.611Z,0.70
2022-08-05T16:24:12.690Z,1.20
2022-08-05T16:26:56.608Z,1.52
2022-08-05T16:29:25.020Z,1.25
2022-08-05T16:31:57.097Z,1.63
2022-08-05T16:34:26.012Z,1.25
2022-08-05T16:36:53.988Z,1.15
2022-08-05T16:39:21.785Z,0.98
2022-08-05T16:42:14.697Z,1.00
2022-08-05T16:44:54.382Z,1.67
2022-08-05T16:47:29.025Z,0.75
2022-08-05T16:50:06.190Z,1.23
2022-08-05T16:52:33.816Z,1.27
2022-08-05T16:55:01.114Z,1.75
2022-08-05T16:57:30.138Z,0.88
2022-08-05T17:00:34.072Z,1.23
2022-08-05T17:03:03.650Z,1.40
2022-08-05T17:05:33.581Z,0.60
2022-08-05T17:08:04.878Z,1.13
2022-08-05T17:10:31.873Z,0.90
2022-08-05T17:12:58.907Z,1.27
2022-08-05T17:15:29.386Z,1.05
2022-08-05T17:18:15.338Z,1.05
2022-08-05T17:20:44.201Z,1.33
2022-08-05T17:24:05.071Z,0.98
2022-08-05T17:25:59.696Z,1.25
2022-08-05T17:28:29.388Z,0.52
2022-08-05T17:30:56.862Z,0.20
2022-08-05T17:33:25.544Z,0.68
2022-08-05T17:36:07.423Z,0.20
2022-08-05T17:38:36.258Z,0.30
2022-08-05T17:41:03.616Z,0.90
2022-08-05T17:43:46.900Z,0.30
2022-08-05T17:46:18.380Z,0.25
2022-08-05T17:48:47.726Z,0.63
2022-08-05T17:51:14.844Z,0.43
2022-08-05T17:53:50.922Z,0.70
2022-08-05T17:56:22.734Z,0.40
2022-08-05T17:58:51.196Z,0.90
2022-08-05T18:01:19.650Z,0.47
2022-08-05T18:03:58.397Z,0.50
2022-08-05T18:06:31.099Z,0.50
2022-08-05T18:08:58.463Z,0.40
2022-08-05T18:11:32.608Z,0.40
2022-08-05T18:14:07.559Z,0.28
2022-08-05T18:16:46.964Z,0.40
2022-08-05T18:19:18.880Z,0.20
2022-08-05T18:22:07.178Z,0.57
2022-08-05T18:24:39.541Z,0.40
2022-08-05T18:27:12.824Z,1.23
2022-08-05T18:29:53.624Z,1.23
2022-08-05T18:32:28.313Z,0.52
2022-08-05T18:34:57.485Z,0.40
2022-08-05T18:37:34.007Z,0.82
2022-08-05T18:40:34.259Z,0.40
2022-08-05T18:42:54.274Z,0.50
2022-08-05T18:45:26.019Z,0.93
2022-08-05T18:48:11.089Z,0.60
2022-08-05T18:52:03.148Z,0.43
2022-08-05T18:54:01.009Z,0.65
2022-08-05T18:56:28.043Z,0.63
2022-08-05T18:59:01.850Z,0.68
2022-08-05T19:01:57.172Z,0.43
2022-08-05T19:04:25.707Z,0.30
2022-08-05T19:06:53.727Z,0.28
2022-08-05T19:09:21.276Z,0.17
2022-08-05T19:11:59.453Z,0.35
2022-08-05T19:14:53.537Z,0.60
2022-08-05T19:17:17.250Z,0.22
2022-08-05T19:19:48.626Z,0.40
2022-08-05T19:22:17.046Z,0.20
2022-08-05T19:24:55.865Z,0.30
2022-08-05T19:27:27.943Z,0.20
2022-08-05T19:29:58.410Z,0.47
2022-08-05T19:32:26.193Z,0.32
2022-08-05T19:34:55.864Z,0.60
2022-08-05T19:37:35.164Z,0.57
2022-08-05T19:40:12.036Z,0.47
2022-08-05T19:42:39.248Z,0.70
2022-08-05T19:45:14.387Z,0.20
2022-08-05T19:47:41.649Z,0.20
2022-08-05T19:50:10.458Z,0.63
2022-08-05T19:52:43.497Z,0.75
2022-08-05T19:56:14.353Z,0.68
2022-08-05T19:58:19.704Z,0.52
2022-08-05T20:00:54.945Z,0.85
2022-08-05T20:03:23.447Z,0.85
2022-08-05T20:05:56.682Z,0.30
2022-08-05T20:08:26.193Z,0.45
2022-08-05T20:10:55.389Z,0.35
2022-08-05T20:13:54.929Z,0.10
2022-08-05T20:16:10.198Z,0.35
2022-08-05T20:18:38.084Z,0.05
2022-08-05T20:21:07.031Z,0.60
2022-08-05T20:23:40.239Z,0.68
2022-08-05T20:26:20.554Z,0.00
2022-08-05T20:28:51.457Z,0.15
2022-08-05T20:31:28.447Z,0.30
2022-08-05T20:34:08.741Z,0.60
2022-08-05T20:36:38.929Z,0.20
2022-08-05T20:39:06.422Z,0.32
2022-08-05T20:41:43.988Z,0.65
2022-08-05T20:44:29.121Z,0.52
2022-08-05T20:47:04.864Z,0.25
2022-08-05T20:49:39.642Z,0.63
2022-08-05T20:52:08.551Z,0.13
2022-08-05T20:54:42.706Z,0.38
2022-08-05T20:57:42.515Z,0.65
2022-08-05T21:00:41.563Z,0.22
2022-08-05T21:03:06.381Z,0.30
2022-08-05T21:05:47.842Z,0.25
2022-08-05T21:08:28.177Z,0.75
2022-08-05T21:11:11.700Z,0.43
2022-08-05T21:13:48.229Z,0.20
2022-08-05T21:16:30.082Z,0.15
2022-08-05T21:19:01.801Z,0.20
2022-08-05T21:21:43.754Z,0.20
2022-08-05T21:24:13.468Z,0.20
2022-08-05T21:29:20.166Z,0.40
2022-08-05T21:31:53.635Z,0.60
2022-08-05T21:34:21.133Z,0.40
2022-08-05T21:36:49.366Z,0.10
2022-08-05T21:39:16.946Z,0.98
2022-08-05T21:42:01.601Z,0.55
2022-08-05T21:44:30.050Z,0.13
2022-08-05T21:46:58.501Z,0.10
2022-08-05T21:49:58.858Z,0.30
2022-08-05T21:52:22.525Z,0.20
2022-08-05T21:54:56.071Z,0.40
2022-08-05T21:57:32.080Z,0.30
2022-08-05T22:00:06.336Z,0.30
2022-08-05T22:02:34.605Z,0.28
2022-08-05T22:05:01.925Z,0.30
2022-08-05T22:07:39.864Z,0.27
2022-08-05T22:10:26.731Z,0.30
2022-08-05T22:12:58.890Z,0.20
2022-08-05T22:16:02.601Z,0.20
2022-08-05T22:18:14.676Z,0.30
2022-08-05T22:20:42.898Z,0.13
2022-08-05T22:24:01.968Z,0.20
2022-08-05T22:26:35.595Z,0.10
2022-08-05T22:29:03.195Z,0.85
2022-08-05T22:31:30.991Z,0.10
2022-08-05T22:34:11.663Z,0.00
2022-08-05T22:36:48.194Z,0.25
2022-08-05T22:39:21.523Z,0.10
2022-08-05T22:42:11.436Z,0.00
2022-08-05T22:44:35.880Z,0.35
2022-08-05T22:47:05.080Z,0.13
2022-08-05T22:50:17.893Z,0.00
2022-08-05T22:52:30.299Z,0.13
2022-08-05T22:54:59.897Z,0.13
2022-08-05T22:57:27.116Z,0.03
2022-08-05T23:00:02.761Z,0.00
2022-08-05T23:02:30.364Z,0.00
2022-08-05T23:05:02.118Z,0.20
2022-08-05T23:07:45.377Z,0.08
2022-08-05T23:10:19.629Z,0.30
2022-08-05T23:12:51.605Z,0.17
2022-08-05T23:15:22.539Z,0.52
2022-08-05T23:18:00.710Z,0.10
2022-08-05T23:20:29.198Z,0.15
2022-08-05T23:22:58.572Z,0.52
2022-08-05T23:25:52.816Z,0.35
2022-08-05T23:28:15.636Z,0.17
2022-08-05T23:30:52.794Z,0.25
2022-08-05T23:34:02.708Z,0.28
2022-08-05T23:36:10.527Z,0.00
2022-08-05T23:38:38.148Z,0.00
2022-08-05T23:41:05.291Z,0.05
2022-08-05T23:44:05.274Z,0.45
2022-08-05T23:46:21.971Z,0.52
2022-08-05T23:49:00.942Z,0.28
2022-08-05T23:51:54.328Z,0.10
2022-08-05T23:54:26.292Z,0.10
2022-08-05T23:56:55.242Z,0.15
2022-08-05T23:59:37.295Z,0.20
